Licenciado Benito Juarez International Airport
MMMX : now visible

Airfield :











YOU CAN JOIN US ON...

 
LOGIN :

Register | Disclaimer

   EN    FR    IT 

 









Legend :    VFR   Marginal VFR   IFR   Intensive IFR   Very Intensive IFR
Visi :
Ceiling :
>= 8 km
>= 3000ft
5 to 8 km
1000 to 3000 ft
1500m to 5 km
500 to 1000 ft
800 to 1500m
200 to 500 ft
< 800m
< 200 ft
Symbols :   Thunderstorms  Fog  Heavy snow  Heavy precipitations  Wind > 20 kt






- Airport Elevation : 7316 ft
- IATA code : MEX


MMMX - Licenciado Benito Juarez International

CURRENT METAR :
  • 201641Z 35005KT 5SM FEW025 SCT250 19/09 A3031 NOSIG RMK 8/802 HZY

EXPIRED METARs :
  • 201623Z 35005KT 4SM FEW025 SCT250 19/10 A3032 NOSIG RMK 8/802 HZY
  • 201541Z 36003KT 4SM SCT025 17/10 A3034 NOSIG RMK 8/800 HZY
  • 201445Z 08005KT 5SM FEW250 15/10 A3034 NOSIG RMK SLP120 52011 960 8/002 HZY SC

TAF TAF MMMX
Valid from the 20 at 18:00 until the 22 at 00:00 UTC


201601Z 2018/2124 04010KT P6SM SCT020 SCT220 TX25/2021Z TN12/2112Z
TEMPO 2022/2102 SCT020CB BKN080 BKN220
FM210400 06005KT P6SM SCT220
BECMG 2111/2112 4SM HZ
FM211700 35005KT 6SM HZ SCT220
FM212000 03010KT P6SM SCT220
MMFR FIR / North America



MET'MAP, your aeronautical weather chart ! - Copyright ORBIFLY December 2007 - Disclaimer

ORBIFLY MET'MAP TEAM :

Programming & Development : Alexandra Zaïnal
Concept & original design : Baudouin d'Aumeries
Assistance for programming : Marc-Olivier Méhu
Technical & hardware support : Manuel Goepfert

Contact : metmap@orbifly.com




SOURCES & CREDITS :

   NOAA       Earth
Advisory